首页
METAR-TAF:

METAR-TAF

机场 :

加斯佩, 魁北克, 加拿大

纬度: 48-46N, 经度: 064-29W, 海拔: 33米

当前天气观测

该预报发布于18分钟前的17:00 UTC
风速15节,风向,有时为20节阵风
温度 22°C
湿度 88%
气压 1005 hPa
能見度: 16.1公里
多云层高于4000英尺
多云层高于8000英尺
阴天层高于10000英尺

METAR: CYGP 151700Z 09015G20KT 10SM BKN040 BKN080 OVC100 22/20 A2968 RMK CU5AC2AS1 SLP054 DENSITY ALT 1300FT

时间: 13:18 (17:18 UTC)

预报

该预报发布于3小时和38分钟前的13:40 UTC
预报有效从15日的 14点(UTC)到 16日的 02点(UTC)
风速5节,风向
能見度: 10公里
散云层高于4000英尺
多云层高于12000英尺
短暂存在
从 15日的 14点(UTC)到 15日的 16点(UTC)
能見度: 10公里
多云层高于4000英尺
阴天层高于12000英尺
小阵雨
成为
从 15日的 14点(UTC)到 15日的 16点(UTC)
风速10节,风向
从 15日的 1600点(UTC)
风速10节,风向
能見度: 10公里
散云层高于4000英尺
多云层高于12000英尺
短暂存在
从 15日的 16点(UTC)到 15日的 24点(UTC)
能見度: 10公里
多云层高于4000英尺
阴天层高于12000英尺
小阵雨
几率 30%
从 15日的 16点(UTC)到 15日的 20点(UTC)
能見度: 6.4公里
多云层高于2000英尺
阴天层高于4000英尺, 积雨云.
雷暴, 雨, 轻雾
从 16日的 0000点(UTC)
风速5节,风向
能見度: 10公里
少量云层高于4000英尺
散云层高于6000英尺
成为
从 16日的 00点(UTC)到 16日的 02点(UTC)
风速5节,风向西

TAF: CYGP 151340Z 1514/1602 09005KT P6SM SCT040 BKN120 TEMPO 1514/1516 P6SM -SHRA BKN040 OVC120 BECMG 1514/1516 09010KT FM151600 09010KT P6SM SCT040 BKN120 TEMPO 1516/1524 P6SM -SHRA BKN040 OVC120 PROB30 1516/1520 4SM TSRA BR BKN020 OVC040CB FM160000 10005KT P6SM FEW040 SCT060 BECMG 1600/1602 26005KT RMK NXT FCST BY 152000Z

超过4000个机场的气象观测和天气预报(METAR&TAF报告)。

可查询的气象台以黄色和红色小点在地图上表示。

将鼠标移到小点上方,可查看气象台名称。

然后点击查看天气观测和预报。

如需切换地图:点击带黑十字的绿色按钮放大地图;点击带横线的绿色按钮缩小地图;或者点击绿色箭头查看邻近地区的地图。


METAR-TAF: